Time;durP1;ratioP1;P1;durP2;ratioP2;P2;SDS_P1;SDS_P2;PMS_P1;PMS_P2;Temp;Humidity;BMP_temperature;BMP_pressure;BME280_temperature;BME280_humidity;BME280_pressure;Samples;Min_cycle;Max_cycle;Signal;HPM_P1;HPM_P2
2021/03/15 00:00:31;;;;;;;4.37;3.73;;;5.60;99.90;;;;;;4902084;29;20433;-86
2021/03/15 00:02:58;;;;;;;4.30;3.30;;;5.50;99.90;;;;;;4895016;29;20536;-86
2021/03/15 00:05:24;;;;;;;4.90;3.97;;;5.50;99.90;;;;;;4889258;29;20456;-86
2021/03/15 00:07:51;;;;;;;4.30;3.87;;;5.50;99.90;;;;;;4889005;29;20447;-86
2021/03/15 00:10:17;;;;;;;3.53;3.23;;;5.50;99.90;;;;;;4899392;29;20444;-86
2021/03/15 00:12:43;;;;;;;4.53;4.07;;;5.50;99.90;;;;;;4898277;29;20475;-85
2021/03/15 00:15:11;;;;;;;4.57;3.83;;;5.50;99.90;;;;;;4899276;29;20455;-86
2021/03/15 00:17:38;;;;;;;6.50;4.17;;;5.50;99.90;;;;;;4892812;29;20831;-86
2021/03/15 00:20:08;;;;;;;5.40;4.60;;;5.40;99.90;;;;;;4880683;29;20465;-86
2021/03/15 00:22:34;;;;;;;5.87;4.10;;;5.40;99.90;;;;;;4884666;29;20498;-86
2021/03/15 00:25:00;;;;;;;3.50;3.20;;;5.40;99.90;;;;;;4898277;29;20455;-86
2021/03/15 00:27:27;;;;;;;5.60;4.10;;;5.40;99.90;;;;;;4902864;29;20493;-85
2021/03/15 00:29:53;;;;;;;5.67;3.53;;;5.40;99.90;;;;;;4885786;29;20456;-86
2021/03/15 00:32:20;;;;;;;4.43;4.03;;;5.40;99.90;;;;;;4881663;29;20460;-85
2021/03/15 00:34:46;;;;;;;4.20;3.80;;;5.40;99.90;;;;;;4902195;29;20998;-86
2021/03/15 00:37:13;;;;;;;4.17;3.60;;;5.30;99.90;;;;;;4899848;29;20978;-85
2021/03/15 00:39:40;;;;;;;4.30;3.60;;;5.20;99.90;;;;;;4883714;29;20870;-86
2021/03/15 00:42:06;;;;;;;3.57;3.23;;;5.30;99.90;;;;;;4883302;29;20453;-86
2021/03/15 00:44:33;;;;;;;5.47;4.10;;;5.20;99.90;;;;;;4890045;29;20964;-86
2021/03/15 00:46:59;;;;;;;4.90;4.53;;;5.10;99.90;;;;;;4882808;29;20988;-86
2021/03/15 00:49:26;;;;;;;5.20;4.67;;;5.00;99.90;;;;;;4883237;29;20460;-86
2021/03/15 00:51:52;;;;;;;6.33;4.57;;;5.00;99.90;;;;;;4883198;29;20528;-86
2021/03/15 00:54:21;;;;;;;5.40;4.90;;;5.00;99.90;;;;;;4899266;29;20490;-86
2021/03/15 00:56:47;;;;;;;4.00;3.60;;;5.10;99.90;;;;;;4901509;29;20470;-86
2021/03/15 00:59:13;;;;;;;4.80;4.00;;;5.10;99.90;;;;;;4885621;29;20494;-85
2021/03/15 01:01:40;;;;;;;5.43;3.77;;;5.20;99.90;;;;;;4883710;29;20479;-85
2021/03/15 01:04:07;;;;;;;6.83;5.07;;;5.10;99.90;;;;;;4901441;29;20523;-86
2021/03/15 01:06:33;;;;;;;3.80;3.30;;;5.10;99.90;;;;;;4892924;29;20485;-85
2021/03/15 01:08:59;;;;;;;4.40;4.00;;;5.10;99.90;;;;;;4903546;29;20456;-85
2021/03/15 01:11:27;;;;;;;4.63;3.97;;;5.00;99.90;;;;;;4895024;29;20468;-85
2021/03/15 01:13:53;;;;;;;3.80;3.40;;;5.00;99.90;;;;;;4902197;29;20479;-86
2021/03/15 01:16:19;;;;;;;5.50;3.90;;;4.90;99.90;;;;;;4904730;29;20447;-86
2021/03/15 01:18:46;;;;;;;5.37;4.60;;;4.80;99.90;;;;;;4899297;29;20498;-86
2021/03/15 01:24:35;;;;;;;4.37;3.73;;;4.70;99.90;;;;;;5017374;23;20474;-84
2021/03/15 01:27:02;;;;;;;3.70;3.40;;;4.60;99.90;;;;;;4921548;29;20453;-85
2021/03/15 01:29:28;;;;;;;5.57;4.40;;;4.60;99.90;;;;;;4904993;29;20450;-84
2021/03/15 01:31:55;;;;;;;4.40;3.93;;;4.70;99.90;;;;;;4923977;29;20507;-84
2021/03/15 01:34:21;;;;;;;6.00;4.67;;;4.70;99.90;;;;;;4921849;29;20486;-84
2021/03/15 01:36:47;;;;;;;4.50;3.97;;;4.70;99.90;;;;;;4918550;29;20458;-85
2021/03/15 01:39:13;;;;;;;5.27;3.53;;;4.80;99.90;;;;;;4940445;28;20489;-84
2021/03/15 01:41:40;;;;;;;5.73;4.90;;;4.80;99.90;;;;;;4942130;28;20465;-84
2021/03/15 01:44:08;;;;;;;4.33;3.93;;;4.80;99.90;;;;;;4927515;29;20454;-85
2021/03/15 01:46:34;;;;;;;10.37;7.33;;;4.70;99.90;;;;;;4923701;29;20453;-84
2021/03/15 01:49:01;;;;;;;5.03;4.27;;;4.60;99.90;;;;;;4937600;29;20977;-84
2021/03/15 01:51:27;;;;;;;5.90;3.93;;;4.60;99.90;;;;;;4943349;28;20431;-84
2021/03/15 01:53:54;;;;;;;5.10;4.60;;;4.60;99.90;;;;;;4943289;28;20447;-84
2021/03/15 01:56:20;;;;;;;6.37;5.63;;;4.70;99.90;;;;;;4941435;28;20456;-84
2021/03/15 01:58:47;;;;;;;7.00;4.37;;;4.60;99.90;;;;;;4939040;29;20492;-84
2021/03/15 02:01:14;;;;;;;5.17;4.77;;;4.50;99.90;;;;;;4925530;29;20478;-84
2021/03/15 02:03:41;;;;;;;8.67;5.13;;;4.50;99.90;;;;;;4911268;29;20477;-84
2021/03/15 02:06:07;;;;;;;7.50;6.27;;;4.50;99.90;;;;;;4903270;29;20968;-84
2021/03/15 02:08:34;;;;;;;5.40;4.80;;;4.40;99.90;;;;;;4917843;29;20470;-84
2021/03/15 02:11:06;;;;;;;5.33;4.83;;;4.40;99.90;;;;;;4936822;29;20447;-84
2021/03/15 02:14:06;;;;;;;5.90;5.10;;;4.30;99.90;;;;;;4926469;29;20467;-84
2021/03/15 02:16:41;;;;;;;6.63;4.40;;;4.20;99.90;;;;;;4902034;29;20473;-85
2021/03/15 02:19:56;;;;;;;6.20;5.70;;;4.10;99.90;;;;;;4918410;29;20495;-84
2021/03/15 02:22:33;;;;;;;7.13;5.20;;;4.10;99.90;;;;;;4867879;29;20496;-85
2021/03/15 02:25:47;;;;;;;5.63;5.20;;;4.10;99.90;;;;;;4896739;29;20520;-85
2021/03/15 02:28:37;;;;;;;5.50;4.97;;;4.00;99.90;;;;;;4902122;29;20449;-85
2021/03/15 02:31:51;;;;;;;6.43;4.93;;;3.90;99.90;;;;;;4928790;29;20442;-84
2021/03/15 02:35:05;;;;;;;7.70;6.30;;;3.90;99.90;;;;;;4872946;29;20578;-85
2021/03/15 02:37:36;;;;;;;9.13;6.73;;;3.90;99.90;;;;;;4820264;29;20467;-85
2021/03/15 02:40:08;;;;;;;7.50;6.00;;;3.90;99.90;;;;;;4909771;29;20442;-85
2021/03/15 02:42:36;;;;;;;8.93;6.43;;;3.90;99.90;;;;;;4932195;29;20561;-84
2021/03/15 02:45:05;;;;;;;6.07;5.00;;;3.90;99.90;;;;;;4922400;29;20461;-85
2021/03/15 02:47:34;;;;;;;7.57;5.70;;;3.90;99.90;;;;;;4902516;29;20890;-85
2021/03/15 02:50:05;;;;;;;7.03;4.83;;;4.00;99.90;;;;;;4900559;29;20947;-85
2021/03/15 02:52:33;;;;;;;7.53;5.93;;;4.00;99.90;;;;;;4917255;29;20479;-85
2021/03/15 02:55:02;;;;;;;9.07;5.90;;;4.00;99.90;;;;;;4918894;29;20209;-85
2021/03/15 02:57:30;;;;;;;7.93;6.27;;;3.90;99.90;;;;;;4903952;29;20459;-85
2021/03/15 02:59:58;;;;;;;10.67;6.00;;;4.00;99.90;;;;;;4899895;29;20476;-85
2021/03/15 03:02:26;;;;;;;7.27;6.17;;;4.00;99.90;;;;;;4914746;29;20440;-85
2021/03/15 03:04:52;;;;;;;9.60;7.00;;;3.90;99.90;;;;;;4918644;29;20457;-86
2021/03/15 03:07:21;;;;;;;9.40;6.63;;;4.00;99.90;;;;;;4903762;29;20458;-85
2021/03/15 03:09:48;;;;;;;8.97;5.20;;;4.10;99.90;;;;;;4900076;29;20517;-85
2021/03/15 03:12:18;;;;;;;9.23;6.45;;;4.10;99.90;;;;;;4911954;29;20495;-85
2021/03/15 03:14:46;;;;;;;12.00;6.83;;;4.10;99.90;;;;;;4918287;29;20216;-85
2021/03/15 03:17:13;;;;;;;7.43;5.50;;;4.10;99.90;;;;;;4904520;29;20955;-85
2021/03/15 03:19:41;;;;;;;9.80;5.90;;;4.10;99.90;;;;;;4899195;29;20495;-85
2021/03/15 03:22:08;;;;;;;8.10;5.87;;;4.10;99.90;;;;;;4910933;29;20465;-85
2021/03/15 03:24:35;;;;;;;7.70;6.20;;;4.00;99.90;;;;;;4917799;29;20465;-85
2021/03/15 03:27:03;;;;;;;8.80;5.70;;;3.90;99.90;;;;;;4906710;29;20463;-85
2021/03/15 03:29:31;;;;;;;7.00;5.67;;;3.90;99.90;;;;;;4898933;29;20446;-85
2021/03/15 03:31:58;;;;;;;9.03;5.33;;;4.00;99.90;;;;;;4898811;29;20831;-85
2021/03/15 03:34:24;;;;;;;8.50;6.07;;;4.00;99.90;;;;;;4898125;29;20479;-86
2021/03/15 03:36:51;;;;;;;10.03;7.47;;;3.90;99.90;;;;;;4909831;29;20482;-85
2021/03/15 03:39:18;;;;;;;7.97;6.30;;;4.00;99.90;;;;;;4917350;29;20494;-85
2021/03/15 03:41:44;;;;;;;10.37;6.47;;;4.00;99.90;;;;;;4906939;29;20466;-85
2021/03/15 03:44:11;;;;;;;6.50;5.57;;;4.00;99.90;;;;;;4911690;29;20473;-85
2021/03/15 03:46:40;;;;;;;9.20;7.20;;;4.10;99.90;;;;;;4914857;29;20461;-86
2021/03/15 03:49:07;;;;;;;9.23;6.93;;;4.10;99.90;;;;;;4903612;29;20455;-85
2021/03/15 03:51:41;;;;;;;9.27;6.40;;;4.10;99.90;;;;;;4916187;29;20512;-85
2021/03/15 03:54:11;;;;;;;8.93;6.33;;;4.20;99.90;;;;;;4917917;29;20481;-85
2021/03/15 03:56:44;;;;;;;12.30;6.10;;;4.10;99.90;;;;;;4925382;29;20450;-86
2021/03/15 03:59:15;;;;;;;7.27;6.57;;;4.20;99.90;;;;;;4915744;29;20490;-85
2021/03/15 04:01:46;;;;;;;6.10;5.50;;;4.20;99.90;;;;;;4929584;29;20429;-85
2021/03/15 04:04:17;;;;;;;9.43;6.93;;;4.30;99.90;;;;;;4938676;29;20457;-86
2021/03/15 04:06:45;;;;;;;8.10;7.30;;;4.30;99.90;;;;;;4929271;28;20531;-85
2021/03/15 04:09:14;;;;;;;9.10;5.40;;;4.30;99.90;;;;;;4909389;29;20455;-85
2021/03/15 04:11:44;;;;;;;9.13;5.77;;;4.40;99.90;;;;;;4904276;29;20463;-85
2021/03/15 04:14:15;;;;;;;5.73;4.60;;;4.40;99.90;;;;;;4914600;29;20478;-85
2021/03/15 04:16:44;;;;;;;8.17;4.03;;;4.40;99.90;;;;;;4921809;29;20450;-86
2021/03/15 04:19:11;;;;;;;5.57;3.50;;;4.60;99.90;;;;;;4911427;29;20486;-86
2021/03/15 04:21:40;;;;;;;3.40;3.10;;;4.60;99.90;;;;;;4921828;29;20431;-85
2021/03/15 04:24:10;;;;;;;7.37;4.70;;;4.70;99.90;;;;;;4907954;29;20490;-86
2021/03/15 04:26:37;;;;;;;8.60;3.97;;;4.70;99.90;;;;;;4905796;29;20458;-85
2021/03/15 04:29:06;;;;;;;6.03;3.63;;;4.70;99.90;;;;;;4918251;29;20450;-85
2021/03/15 04:31:33;;;;;;;6.33;3.63;;;4.70;99.90;;;;;;4911623;29;20455;-85
2021/03/15 04:34:01;;;;;;;6.00;3.40;;;4.70;99.90;;;;;;4898439;29;20485;-85
2021/03/15 04:36:27;;;;;;;4.67;3.27;;;4.70;99.90;;;;;;4902019;29;20969;-85
2021/03/15 04:38:57;;;;;;;5.60;3.20;;;4.70;99.90;;;;;;4915788;29;20483;-86
2021/03/15 04:41:23;;;;;;;5.90;3.03;;;4.70;99.90;;;;;;4898528;29;20455;-86
2021/03/15 04:43:50;;;;;;;6.37;3.27;;;4.80;99.90;;;;;;4901198;29;20530;-85
2021/03/15 04:46:17;;;;;;;7.23;4.07;;;4.80;99.90;;;;;;4917391;29;20596;-86
2021/03/15 04:48:45;;;;;;;5.60;3.70;;;4.80;99.90;;;;;;4917628;29;20836;-85
2021/03/15 04:51:12;;;;;;;4.53;3.40;;;4.80;99.90;;;;;;4898561;29;20458;-85
2021/03/15 04:53:40;;;;;;;5.90;3.60;;;4.90;99.90;;;;;;4899885;29;20468;-85
2021/03/15 04:56:10;;;;;;;5.10;2.87;;;4.90;99.90;;;;;;4940516;23;20505;-88
2021/03/15 04:58:39;;;;;;;5.30;3.47;;;4.90;99.90;;;;;;4938999;29;20493;-88
2021/03/15 05:01:06;;;;;;;6.60;3.90;;;4.90;99.90;;;;;;4935841;29;20443;-88
2021/03/15 05:03:34;;;;;;;3.90;3.00;;;4.90;99.90;;;;;;4942706;29;20457;-88
2021/03/15 05:06:01;;;;;;;4.00;3.20;;;4.90;99.90;;;;;;4932100;29;20536;-87
2021/03/15 05:08:32;;;;;;;4.33;3.20;;;4.90;99.90;;;;;;4918269;29;20548;-88
2021/03/15 05:11:00;;;;;;;5.13;4.30;;;4.90;99.90;;;;;;4927400;23;20513;-84
2021/03/15 05:13:27;;;;;;;5.77;3.63;;;4.90;99.90;;;;;;4922849;29;20465;-86
2021/03/15 05:15:53;;;;;;;8.37;3.57;;;4.80;99.90;;;;;;4908366;29;20454;-85
2021/03/15 05:18:21;;;;;;;5.30;3.43;;;4.90;99.90;;;;;;4901779;29;20489;-86
2021/03/15 05:20:48;;;;;;;3.67;3.20;;;4.80;99.90;;;;;;4919874;29;20474;-85
2021/03/15 05:23:15;;;;;;;4.23;3.83;;;4.80;99.90;;;;;;4937692;29;20477;-84
2021/03/15 05:25:43;;;;;;;7.83;3.37;;;4.80;99.90;;;;;;4917623;29;20459;-85
2021/03/15 05:28:11;;;;;;;4.33;3.60;;;4.70;99.90;;;;;;4903039;29;20454;-85
2021/03/15 05:30:40;;;;;;;4.10;3.23;;;4.70;99.90;;;;;;4915714;29;20475;-85
2021/03/15 05:33:11;;;;;;;6.17;3.70;;;4.60;99.90;;;;;;4922727;29;20460;-85
2021/03/15 05:35:39;;;;;;;3.20;2.90;;;4.60;99.90;;;;;;4921118;29;20465;-84
2021/03/15 05:38:05;;;;;;;7.27;3.53;;;4.60;99.90;;;;;;4931944;29;20489;-84
2021/03/15 05:40:32;;;;;;;5.77;4.27;;;4.60;99.90;;;;;;4938142;29;20481;-84
2021/03/15 05:43:13;;;;;;;6.43;4.50;;;4.50;99.90;;;;;;4924100;29;20461;-85
2021/03/15 05:46:15;;;;;;;6.53;4.20;;;4.50;99.90;;;;;;4909259;29;20210;-84
2021/03/15 05:49:11;;;;;;;8.30;5.00;;;4.50;99.90;;;;;;4902301;29;20485;-85
2021/03/15 05:52:06;;;;;;;4.67;4.17;;;4.50;99.90;;;;;;4925419;29;20899;-85
2021/03/15 05:55:30;;;;;;;5.25;3.78;;;4.50;99.90;;;;;;4940662;28;20462;-84
2021/03/15 05:58:22;;;;;;;9.75;4.50;;;4.40;99.90;;;;;;4929034;29;20841;-85
2021/03/15 06:01:22;;;;;;;13.13;5.10;;;4.40;99.90;;;;;;4915900;29;20225;-85
2021/03/15 06:04:33;;;;;;;7.80;4.30;;;4.40;99.90;;;;;;4928551;23;20501;-87
2021/03/15 06:07:13;;;;;;;6.83;4.80;;;4.40;99.90;;;;;;4939209;29;20461;-88
2021/03/15 06:09:56;;;;;;;5.80;3.43;;;4.40;99.90;;;;;;4939844;28;20516;-87
2021/03/15 06:28:14;;;;;;;4.53;3.43;;;4.50;99.90;;;;;;4953556;29;20460;-88
2021/03/15 06:31:13;;;;;;;4.17;3.30;;;4.50;99.90;;;;;;4950880;29;20454;-89
2021/03/15 06:38:51;;;;;;;5.43;3.93;;;4.50;99.90;;;;;;4954520;28;20491;-87
2021/03/15 06:41:29;;;;;;;5.43;3.77;;;4.50;99.90;;;;;;4947387;29;20460;-86
2021/03/15 06:44:02;;;;;;;4.40;4.00;;;4.50;99.90;;;;;;4958807;29;20475;-88
2021/03/15 06:46:40;;;;;;;4.97;3.20;;;4.50;99.90;;;;;;4954773;28;20437;-89
2021/03/15 06:49:22;;;;;;;;;;;;;;;;;;;;;
2021/03/15 06:52:19;;;;;;;5.13;3.60;;;4.60;99.90;;;;;;4940497;29;20464;-88
2021/03/15 06:54:48;;;;;;;3.80;3.50;;;4.70;99.90;;;;;;4950150;29;20456;-89
2021/03/15 06:57:49;;;;;;;4.03;3.20;;;4.80;99.90;;;;;;4952880;29;20446;-88
2021/03/15 07:03:13;;;;;;;5.17;3.50;;;5.00;99.90;;;;;;4932494;29;20472;-88
2021/03/15 07:05:42;;;;;;;4.13;3.07;;;5.00;99.90;;;;;;4938827;29;20464;-89
2021/03/15 07:08:23;;;;;;;3.63;3.07;;;5.10;99.90;;;;;;4939486;29;20449;-88
2021/03/15 07:10:55;;;;;;;2.63;2.43;;;5.10;99.90;;;;;;4938466;29;20450;-88
2021/03/15 07:13:27;;;;;;;4.53;2.80;;;5.00;99.90;;;;;;4938766;29;20484;-88
2021/03/15 07:15:59;;;;;;;6.40;3.67;;;5.10;99.90;;;;;;4939089;29;20533;-88
2021/03/15 07:18:36;;;;;;;4.43;2.77;;;5.20;99.90;;;;;;4938434;29;20485;-89
2021/03/15 07:21:12;;;;;;;3.43;2.50;;;5.20;99.90;;;;;;4939695;29;20512;-88
2021/03/15 07:23:54;;;;;;;3.60;3.30;;;5.30;99.90;;;;;;4939467;29;21013;-88
2021/03/15 07:26:46;;;;;;;3.57;2.77;;;5.40;99.90;;;;;;4938661;29;20548;-88
2021/03/15 07:29:37;;;;;;;2.70;2.13;;;5.50;99.90;;;;;;4938305;29;20448;-88
2021/03/15 07:32:11;;;;;;;3.13;2.37;;;5.50;99.90;;;;;;4916870;29;20500;-89
2021/03/15 07:34:40;;;;;;;3.70;2.77;;;5.50;99.90;;;;;;4953040;29;20473;-89
2021/03/15 07:37:22;;;;;;;3.30;2.70;;;5.40;99.90;;;;;;4958658;28;20461;-89
2021/03/15 07:40:00;;;;;;;4.10;1.90;;;5.30;99.90;;;;;;4944255;29;20481;-88
2021/03/15 07:42:36;;;;;;;4.70;1.97;;;5.20;99.90;;;;;;4951870;29;20484;-88
2021/03/15 07:45:06;;;;;;;4.43;2.50;;;5.00;99.90;;;;;;4945868;29;20513;-88
2021/03/15 07:47:50;;;;;;;3.57;2.73;;;4.90;99.90;;;;;;4939619;29;20444;-89
2021/03/15 07:53:51;;;;;;;4.23;2.33;;;4.80;99.90;;;;;;4922749;29;21047;-88
2021/03/15 07:56:28;;;;;;;3.37;1.77;;;4.80;99.90;;;;;;4937921;29;20427;-88
2021/03/15 07:59:00;;;;;;;1.53;1.43;;;4.80;99.90;;;;;;4937877;29;20508;-88
2021/03/15 08:01:39;;;;;;;2.13;1.90;;;4.70;99.90;;;;;;4946708;28;20458;-88
2021/03/15 08:04:22;;;;;;;1.30;1.20;;;4.70;99.90;;;;;;4958769;28;20478;-88
2021/03/15 08:06:57;;;;;;;2.80;1.63;;;4.70;99.90;;;;;;4946011;29;20488;-88
2021/03/15 08:09:26;;;;;;;3.07;1.93;;;4.70;99.90;;;;;;4939111;29;20435;-88
2021/03/15 08:12:02;;;;;;;1.60;1.50;;;4.70;99.90;;;;;;4937668;29;20956;-88
2021/03/15 08:14:32;;;;;;;2.83;1.30;;;4.80;99.90;;;;;;4937770;29;20460;-88
2021/03/15 08:17:06;;;;;;;2.07;1.87;;;4.80;99.90;;;;;;4936798;29;20465;-88
2021/03/15 08:19:58;;;;;;;3.20;1.97;;;4.90;99.90;;;;;;4937835;29;20481;-88
2021/03/15 08:22:40;;;;;;;1.77;1.50;;;5.00;99.90;;;;;;4938953;29;20519;-88
2021/03/15 08:25:11;;;;;;;3.50;1.70;;;5.20;99.90;;;;;;4938006;29;20495;-88
2021/03/15 08:27:47;;;;;;;1.47;1.30;;;5.10;99.90;;;;;;4938375;29;20493;-88
2021/03/15 08:30:20;;;;;;;2.13;1.73;;;5.20;99.90;;;;;;4951325;29;20513;-88
2021/03/15 08:32:50;;;;;;;2.50;1.50;;;5.30;99.90;;;;;;4943813;29;20480;-89
2021/03/15 08:35:20;;;;;;;1.70;1.60;;;5.50;99.90;;;;;;4938248;29;20460;-88
2021/03/15 08:38:05;;;;;;;3.10;1.60;;;5.60;99.90;;;;;;4940351;29;20989;-87
2021/03/15 08:41:05;;;;;;;2.07;1.60;;;5.80;99.90;;;;;;4942394;29;20468;-85
2021/03/15 08:44:56;;;;;;;;;;;;;;;;;;;;;
2021/03/15 08:48:36;;;;;;;;;;;;;;;;;;;;;
2021/03/15 09:10:30;;;;;;;1.10;0.90;;;6.20;99.90;;;;;;4925837;29;20496;-85
2021/03/15 11:48:59;;;;;;;;;;;;;;;;;;;;;
2021/03/15 11:51:23;;;;;;;2.07;1.97;;;9.10;99.90;;;;;;4705840;30;20585;-89
2021/03/15 11:53:49;;;;;;;2.50;2.30;;;9.20;99.90;;;;;;4789287;29;20973;-87
2021/03/15 11:56:19;;;;;;;2.70;2.50;;;9.20;99.90;;;;;;4948789;28;20514;-87
2021/03/15 11:58:45;;;;;;;4.20;2.47;;;9.20;99.90;;;;;;4977125;28;20599;-87
2021/03/15 12:01:12;;;;;;;2.40;2.20;;;9.50;99.90;;;;;;4959550;28;20878;-88
2021/03/15 12:03:38;;;;;;;2.63;2.43;;;10.00;99.90;;;;;;4959546;28;20603;-86
2021/03/15 12:06:05;;;;;;;2.40;2.20;;;10.50;99.50;;;;;;4971088;28;20444;-85
2021/03/15 12:08:33;;;;;;;1.97;1.80;;;10.90;97.90;;;;;;4968181;28;20818;-86
2021/03/15 12:10:59;;;;;;;3.60;1.83;;;11.60;97.20;;;;;;4959720;28;20472;-85
2021/03/15 12:13:26;;;;;;;1.77;1.67;;;12.50;95.40;;;;;;4958796;28;20457;-85
2021/03/15 12:15:53;;;;;;;3.10;1.60;;;12.50;92.90;;;;;;4954679;29;20444;-85
2021/03/15 12:18:19;;;;;;;1.90;1.80;;;12.20;92.20;;;;;;4955747;28;20449;-85
2021/03/15 12:20:46;;;;;;;2.90;1.97;;;11.70;92.70;;;;;;4966088;28;20881;-85
2021/03/15 12:23:12;;;;;;;2.10;1.67;;;11.30;93.10;;;;;;4963624;28;20464;-86
2021/03/15 12:25:40;;;;;;;1.90;1.80;;;10.70;93.90;;;;;;4974245;28;20452;-85
2021/03/15 12:28:08;;;;;;;5.70;2.50;;;10.30;94.80;;;;;;4961045;28;20468;-85
2021/03/15 12:30:37;;;;;;;6.33;2.67;;;10.00;96.00;;;;;;4980453;28;20507;-86
2021/03/15 12:33:03;;;;;;;5.57;3.60;;;9.70;97.20;;;;;;4971315;28;20467;-85
2021/03/15 12:35:29;;;;;;;3.53;2.70;;;9.60;98.00;;;;;;4963437;28;20448;-85
2021/03/15 12:37:56;;;;;;;3.43;3.03;;;9.60;98.20;;;;;;4976314;28;20448;-86
2021/03/15 12:40:23;;;;;;;3.37;2.83;;;9.70;98.00;;;;;;4973398;28;20483;-85
2021/03/15 12:42:51;;;;;;;3.50;3.20;;;9.80;97.80;;;;;;4990918;28;20464;-85
2021/03/15 12:45:42;;;;;;;3.63;2.50;;;9.90;98.00;;;;;;4973066;23;20498;-85
2021/03/15 12:49:10;;;;;;;3.77;3.47;;;10.10;97.50;;;;;;4928067;29;20451;-87
2021/03/15 12:55:32;;;;;;;1.93;1.83;;;12.70;95.10;;;;;;4796923;29;20485;-84
2021/03/15 12:58:49;;;;;;;;;;;;;;;;;;;;;
2021/03/15 13:01:19;;;;;;;2.87;2.57;;;15.60;81.30;;;;;;4915411;23;20496;-89
2021/03/15 13:03:59;;;;;;;3.23;2.00;;;14.70;81.70;;;;;;4930296;29;21318;-87
2021/03/15 13:06:30;;;;;;;2.50;2.30;;;13.90;82.20;;;;;;4939007;29;20824;-89
2021/03/15 13:08:57;;;;;;;2.63;2.43;;;13.90;82.80;;;;;;4928957;29;20486;-87
2021/03/15 13:11:25;;;;;;;2.47;2.33;;;13.90;80.10;;;;;;4948198;29;20479;-87
2021/03/15 13:14:04;;;;;;;2.60;2.30;;;14.10;79.20;;;;;;4932613;29;20455;-88
2021/03/15 13:16:35;;;;;;;2.20;2.10;;;14.10;76.50;;;;;;4941395;29;20462;-88
2021/03/15 13:19:07;;;;;;;2.30;2.10;;;14.00;75.10;;;;;;4942402;28;20446;-89
2021/03/15 13:21:39;;;;;;;2.40;2.20;;;14.00;74.70;;;;;;4942429;28;20539;-90
2021/03/15 13:24:17;;;;;;;2.93;2.47;;;13.20;73.40;;;;;;4943719;28;20442;-87
2021/03/15 13:26:51;;;;;;;4.07;2.10;;;13.60;75.00;;;;;;4950860;29;20523;-89
2021/03/15 13:29:33;;;;;;;1.93;1.83;;;15.80;74.20;;;;;;4940483;29;20483;-89
2021/03/15 13:32:05;;;;;;;2.00;1.90;;;17.50;63.50;;;;;;4927733;29;20480;-89
2021/03/15 13:34:38;;;;;;;2.40;2.10;;;17.00;57.70;;;;;;4954078;29;20445;-89
2021/03/15 13:37:12;;;;;;;2.77;2.50;;;16.50;57.30;;;;;;4950726;29;20461;-89
2021/03/15 13:39:39;;;;;;;5.17;2.20;;;15.80;57.80;;;;;;4942613;29;20486;-88
2021/03/15 13:42:06;;;;;;;2.37;2.17;;;15.00;58.90;;;;;;4937758;29;20451;-88
2021/03/15 13:44:32;;;;;;;4.07;2.20;;;14.60;59.70;;;;;;4941610;29;20464;-89
2021/03/15 13:46:58;;;;;;;3.70;1.70;;;14.50;60.30;;;;;;4940535;28;20442;-89
2021/03/15 13:49:25;;;;;;;4.83;2.13;;;14.50;60.60;;;;;;4947966;29;21068;-89
2021/03/15 13:51:55;;;;;;;3.27;2.97;;;13.90;61.20;;;;;;4936563;29;20439;-89
2021/03/15 13:54:23;;;;;;;4.83;2.43;;;13.10;61.70;;;;;;4949693;29;20454;-84
2021/03/15 13:56:49;;;;;;;4.60;3.20;;;12.50;64.20;;;;;;4969467;23;20512;-84
2021/03/15 13:59:15;;;;;;;3.10;2.40;;;12.10;65.90;;;;;;4962934;29;20481;-85
2021/03/15 14:01:42;;;;;;;2.90;2.50;;;11.80;68.00;;;;;;4961267;29;21017;-84
2021/03/15 14:04:08;;;;;;;3.07;2.77;;;11.60;68.50;;;;;;4958903;28;20947;-86
2021/03/15 14:06:35;;;;;;;6.03;2.87;;;11.40;69.60;;;;;;4959105;28;20481;-85
2021/03/15 14:09:01;;;;;;;4.60;3.60;;;11.80;71.10;;;;;;4952113;29;20540;-85
2021/03/15 14:11:27;;;;;;;4.30;3.10;;;12.40;69.20;;;;;;4943078;29;20875;-85
2021/03/15 14:13:54;;;;;;;3.50;2.53;;;12.60;68.30;;;;;;4947877;29;20454;-85
2021/03/15 14:16:20;;;;;;;4.33;2.90;;;12.50;67.50;;;;;;4952285;28;20477;-85
2021/03/15 14:18:46;;;;;;;3.00;2.70;;;13.10;67.60;;;;;;4948604;29;20457;-85
2021/03/15 14:21:12;;;;;;;5.30;3.60;;;13.80;65.90;;;;;;4951290;29;20822;-85
2021/03/15 14:23:39;;;;;;;3.43;3.00;;;14.20;63.70;;;;;;4945010;29;20821;-85
2021/03/15 14:26:05;;;;;;;8.23;3.07;;;14.30;62.40;;;;;;4941516;29;20465;-85
2021/03/15 14:28:32;;;;;;;3.07;2.50;;;14.10;62.70;;;;;;4951580;29;20446;-85
2021/03/15 14:31:00;;;;;;;2.90;2.70;;;14.00;63.20;;;;;;4951844;29;20480;-85
2021/03/15 14:33:27;;;;;;;3.47;3.17;;;13.70;63.00;;;;;;4947572;28;20460;-85
2021/03/15 14:35:53;;;;;;;3.23;2.87;;;13.30;64.00;;;;;;4950710;28;20457;-85
2021/03/15 14:38:19;;;;;;;3.80;3.27;;;13.40;64.20;;;;;;4957243;28;20463;-86
2021/03/15 14:40:46;;;;;;;3.97;3.33;;;13.50;63.60;;;;;;4956642;29;20492;-85
2021/03/15 14:43:12;;;;;;;5.67;4.13;;;13.30;64.20;;;;;;4958269;29;20450;-85
2021/03/15 14:45:39;;;;;;;4.40;4.00;;;12.60;64.80;;;;;;4959138;28;20504;-85
2021/03/15 14:48:06;;;;;;;4.47;4.07;;;12.10;66.80;;;;;;4954090;29;20811;-85
2021/03/15 14:50:33;;;;;;;7.17;3.63;;;12.00;68.20;;;;;;4958362;29;20484;-86
2021/03/15 14:52:59;;;;;;;12.23;9.53;;;12.60;68.10;;;;;;4957754;28;20457;-86
2021/03/15 14:55:25;;;;;;;4.90;3.70;;;13.30;65.90;;;;;;4959321;29;20456;-86
2021/03/15 14:57:52;;;;;;;4.33;3.50;;;13.80;64.20;;;;;;4957137;29;20481;-86
2021/03/15 15:00:19;;;;;;;3.43;3.13;;;13.70;64.20;;;;;;4958055;29;20807;-86
2021/03/15 15:02:46;;;;;;;4.10;3.70;;;14.10;64.00;;;;;;4957809;29;20445;-85
2021/03/15 15:05:13;;;;;;;4.10;3.70;;;14.50;62.70;;;;;;4967395;29;20452;-86
2021/03/15 15:07:40;;;;;;;5.80;4.60;;;15.00;61.60;;;;;;4959501;29;20474;-86
2021/03/15 15:10:07;;;;;;;8.10;3.87;;;15.60;59.90;;;;;;4951302;28;20474;-83
2021/03/15 15:12:33;;;;;;;4.47;4.03;;;15.50;59.50;;;;;;4958257;29;20458;-84
2021/03/15 15:15:00;;;;;;;4.20;3.47;;;15.20;59.00;;;;;;4958608;29;20455;-85
2021/03/15 15:17:27;;;;;;;3.30;3.00;;;15.30;59.90;;;;;;4957062;29;20469;-84
2021/03/15 15:19:53;;;;;;;3.57;3.27;;;15.10;59.90;;;;;;4967468;29;20447;-86
2021/03/15 15:22:19;;;;;;;7.00;3.90;;;15.20;60.20;;;;;;4978739;28;20478;-85
2021/03/15 15:24:45;;;;;;;4.03;3.20;;;14.80;59.80;;;;;;4976545;28;20516;-86
2021/03/15 15:27:11;;;;;;;4.10;3.57;;;14.00;61.80;;;;;;4971915;28;20489;-85
2021/03/15 15:29:38;;;;;;;5.20;3.50;;;13.30;63.10;;;;;;4971623;28;21081;-85
2021/03/15 15:32:06;;;;;;;5.23;3.50;;;12.70;65.90;;;;;;4967409;28;20454;-85
2021/03/15 15:34:33;;;;;;;3.67;3.37;;;12.30;67.50;;;;;;4972337;28;20441;-85
2021/03/15 15:36:59;;;;;;;4.40;3.83;;;12.30;69.10;;;;;;4976861;28;20464;-85
2021/03/15 15:39:26;;;;;;;4.13;3.60;;;12.90;68.70;;;;;;4986406;28;20424;-85
2021/03/15 15:41:52;;;;;;;3.70;3.40;;;13.90;66.30;;;;;;4976587;28;20445;-85
2021/03/15 15:44:18;;;;;;;7.50;3.40;;;14.90;64.70;;;;;;4979638;28;20443;-85
2021/03/15 15:46:44;;;;;;;3.90;2.93;;;15.60;60.90;;;;;;4982935;28;20467;-85
2021/03/15 15:49:12;;;;;;;7.30;3.50;;;15.50;60.10;;;;;;4969664;28;20480;-86
2021/03/15 15:51:38;;;;;;;3.40;2.97;;;14.60;60.40;;;;;;4969636;28;20441;-85
2021/03/15 15:54:05;;;;;;;3.60;3.00;;;13.70;61.90;;;;;;4966677;28;20449;-86
2021/03/15 15:56:31;;;;;;;2.87;2.57;;;13.00;64.30;;;;;;4964698;28;20557;-86
2021/03/15 15:58:57;;;;;;;4.83;2.70;;;12.50;66.60;;;;;;4964897;28;20866;-86
2021/03/15 16:01:23;;;;;;;6.70;3.10;;;12.10;68.40;;;;;;4979905;28;20450;-84
2021/03/15 16:03:49;;;;;;;3.67;2.97;;;11.70;68.90;;;;;;4969238;28;20496;-85
2021/03/15 16:06:16;;;;;;;2.93;2.53;;;11.60;69.10;;;;;;4962635;28;20472;-85
2021/03/15 16:08:42;;;;;;;3.47;2.73;;;11.50;69.70;;;;;;4961979;28;20440;-86
2021/03/15 16:11:09;;;;;;;4.27;2.93;;;11.30;70.50;;;;;;4966724;28;20436;-85
2021/03/15 16:13:35;;;;;;;3.93;2.67;;;11.10;71.30;;;;;;4965231;28;20461;-85
2021/03/15 16:16:01;;;;;;;5.40;3.03;;;10.90;71.20;;;;;;4965918;28;21015;-86
2021/03/15 16:18:28;;;;;;;2.83;2.40;;;10.60;72.70;;;;;;4964975;28;20449;-86
2021/03/15 16:20:55;;;;;;;6.40;2.53;;;10.40;73.70;;;;;;4966788;28;20436;-91
2021/03/15 16:52:26;;;;;;;3.20;2.40;;;9.80;78.70;;;;;;4644263;30;20993;-85
2021/03/15 17:05:01;;;;;;;4.30;1.77;;;9.20;85.20;;;;;;4766927;29;20448;-86
2021/03/15 17:07:49;;;;;;;2.43;1.93;;;8.90;89.50;;;;;;4875298;29;20466;-85
2021/03/15 17:11:05;;;;;;;3.70;2.33;;;8.70;91.20;;;;;;4955025;29;20478;-85
2021/03/15 17:13:38;;;;;;;2.77;1.90;;;8.60;91.80;;;;;;4945314;29;20445;-85
2021/03/15 17:16:24;;;;;;;3.63;2.80;;;8.40;92.60;;;;;;4940556;29;20483;-84
2021/03/15 17:18:51;;;;;;;3.30;2.67;;;8.30;93.10;;;;;;4947639;29;20942;-83
2021/03/15 17:21:23;;;;;;;3.47;2.67;;;8.30;93.40;;;;;;4958597;29;20488;-84
2021/03/15 17:23:52;;;;;;;3.90;2.27;;;8.20;93.60;;;;;;4953498;29;20476;-85
2021/03/15 17:26:18;;;;;;;4.13;2.97;;;8.20;94.30;;;;;;4955511;29;20464;-84
2021/03/15 17:28:46;;;;;;;7.87;2.80;;;8.10;94.60;;;;;;4946879;29;20500;-84
2021/03/15 17:31:12;;;;;;;4.10;3.70;;;8.00;94.90;;;;;;4947115;29;20462;-85
2021/03/15 17:33:41;;;;;;;4.70;3.30;;;7.90;95.30;;;;;;4946481;29;20513;-85